sensor_id;sensor_type;location;lat;lon;timestamp;P1;durP1;ratioP1;P2;durP2;ratioP2
60098;SDS011;45976;49.400;8.682;2022-07-06T00:00:36;2.50;;;1.10;;
60098;SDS011;45976;49.400;8.682;2022-07-06T00:01:37;1.80;;;0.90;;
60098;SDS011;45976;49.400;8.682;2022-07-06T00:03:39;6.05;;;1.00;;
60098;SDS011;45976;49.400;8.682;2022-07-06T00:04:39;4.50;;;1.37;;
60098;SDS011;45976;49.400;8.682;2022-07-06T00:05:40;2.27;;;1.00;;
60098;SDS011;45976;49.400;8.682;2022-07-06T00:06:41;5.97;;;1.50;;
60098;SDS011;45976;49.400;8.682;2022-07-06T00:07:41;2.77;;;1.17;;
60098;SDS011;45976;49.400;8.682;2022-07-06T00:08:42;1.97;;;0.90;;
60098;SDS011;45976;49.400;8.682;2022-07-06T00:09:43;6.05;;;1.10;;
60098;SDS011;45976;49.400;8.682;2022-07-06T00:10:44;2.83;;;0.98;;
60098;SDS011;45976;49.400;8.682;2022-07-06T00:11:44;5.07;;;0.97;;
60098;SDS011;45976;49.400;8.682;2022-07-06T00:12:45;3.83;;;1.20;;
60098;SDS011;45976;49.400;8.682;2022-07-06T00:13:46;3.67;;;1.45;;
60098;SDS011;45976;49.400;8.682;2022-07-06T00:14:47;2.88;;;1.08;;
60098;SDS011;45976;49.400;8.682;2022-07-06T00:15:47;10.07;;;1.10;;
60098;SDS011;45976;49.400;8.682;2022-07-06T00:16:48;4.90;;;1.13;;
60098;SDS011;45976;49.400;8.682;2022-07-06T00:17:49;1.57;;;0.83;;
60098;SDS011;45976;49.400;8.682;2022-07-06T00:18:49;5.47;;;1.10;;
60098;SDS011;45976;49.400;8.682;2022-07-06T00:19:50;5.28;;;1.45;;
60098;SDS011;45976;49.400;8.682;2022-07-06T00:20:51;3.10;;;1.10;;
60098;SDS011;45976;49.400;8.682;2022-07-06T00:21:51;5.13;;;0.90;;
60098;SDS011;45976;49.400;8.682;2022-07-06T00:22:52;5.13;;;1.10;;
60098;SDS011;45976;49.400;8.682;2022-07-06T00:23:52;3.80;;;1.10;;
60098;SDS011;45976;49.400;8.682;2022-07-06T00:24:53;3.38;;;1.45;;
60098;SDS011;45976;49.400;8.682;2022-07-06T00:25:54;8.70;;;1.50;;
60098;SDS011;45976;49.400;8.682;2022-07-06T00:26:54;2.83;;;1.07;;
60098;SDS011;45976;49.400;8.682;2022-07-06T00:27:55;4.80;;;1.00;;
60098;SDS011;45976;49.400;8.682;2022-07-06T00:28:55;1.30;;;1.10;;
60098;SDS011;45976;49.400;8.682;2022-07-06T00:29:56;2.28;;;1.10;;
60098;SDS011;45976;49.400;8.682;2022-07-06T00:30:57;4.83;;;1.00;;
60098;SDS011;45976;49.400;8.682;2022-07-06T00:31:57;5.50;;;1.20;;
60098;SDS011;45976;49.400;8.682;2022-07-06T00:32:58;6.88;;;1.42;;
60098;SDS011;45976;49.400;8.682;2022-07-06T00:33:59;2.13;;;1.17;;
60098;SDS011;45976;49.400;8.682;2022-07-06T00:34:59;2.77;;;1.13;;
60098;SDS011;45976;49.400;8.682;2022-07-06T00:36:03;7.53;;;1.27;;
60098;SDS011;45976;49.400;8.682;2022-07-06T00:37:03;8.82;;;1.65;;
60098;SDS011;45976;49.400;8.682;2022-07-06T00:38:04;3.83;;;1.30;;
60098;SDS011;45976;49.400;8.682;2022-07-06T00:39:05;3.27;;;1.20;;
60098;SDS011;45976;49.400;8.682;2022-07-06T00:40:06;4.40;;;1.47;;
60098;SDS011;45976;49.400;8.682;2022-07-06T00:41:07;4.10;;;1.20;;
60098;SDS011;45976;49.400;8.682;2022-07-06T00:42:08;5.50;;;1.33;;
60098;SDS011;45976;49.400;8.682;2022-07-06T00:43:09;5.47;;;1.77;;
60098;SDS011;45976;49.400;8.682;2022-07-06T00:44:09;5.07;;;1.40;;
60098;SDS011;45976;49.400;8.682;2022-07-06T00:45:11;2.95;;;0.98;;
60098;SDS011;45976;49.400;8.682;2022-07-06T00:46:13;6.30;;;1.05;;
60098;SDS011;45976;49.400;8.682;2022-07-06T00:47:14;9.20;;;1.42;;
60098;SDS011;45976;49.400;8.682;2022-07-06T00:48:15;6.70;;;1.20;;
60098;SDS011;45976;49.400;8.682;2022-07-06T00:49:15;10.75;;;1.60;;
60098;SDS011;45976;49.400;8.682;2022-07-06T00:50:34;2.88;;;1.38;;
60098;SDS011;45976;49.400;8.682;2022-07-06T00:51:35;5.40;;;1.30;;
60098;SDS011;45976;49.400;8.682;2022-07-06T00:52:37;7.35;;;1.30;;
60098;SDS011;45976;49.400;8.682;2022-07-06T00:53:39;3.95;;;1.27;;
60098;SDS011;45976;49.400;8.682;2022-07-06T00:54:42;5.45;;;1.60;;
60098;SDS011;45976;49.400;8.682;2022-07-06T00:56:44;4.57;;;1.50;;
60098;SDS011;45976;49.400;8.682;2022-07-06T00:58:47;4.30;;;1.15;;
60098;SDS011;45976;49.400;8.682;2022-07-06T00:59:47;2.35;;;1.08;;
60098;SDS011;45976;49.400;8.682;2022-07-06T01:00:48;2.43;;;1.27;;
60098;SDS011;45976;49.400;8.682;2022-07-06T01:01:49;3.47;;;1.30;;
60098;SDS011;45976;49.400;8.682;2022-07-06T01:02:49;2.03;;;1.00;;
60098;SDS011;45976;49.400;8.682;2022-07-06T01:04:51;4.85;;;1.50;;
60098;SDS011;45976;49.400;8.682;2022-07-06T01:05:52;6.57;;;1.70;;
60098;SDS011;45976;49.400;8.682;2022-07-06T01:06:53;6.30;;;1.60;;
60098;SDS011;45976;49.400;8.682;2022-07-06T01:07:54;2.70;;;1.45;;
60098;SDS011;45976;49.400;8.682;2022-07-06T01:08:56;4.60;;;1.60;;
60098;SDS011;45976;49.400;8.682;2022-07-06T01:09:57;6.28;;;1.65;;
60098;SDS011;45976;49.400;8.682;2022-07-06T01:10:58;5.73;;;1.33;;
60098;SDS011;45976;49.400;8.682;2022-07-06T01:11:59;2.88;;;1.35;;
60098;SDS011;45976;49.400;8.682;2022-07-06T01:12:59;11.30;;;1.40;;
60098;SDS011;45976;49.400;8.682;2022-07-06T01:14:00;7.33;;;1.87;;
60098;SDS011;45976;49.400;8.682;2022-07-06T01:15:05;12.57;;;1.58;;
60098;SDS011;45976;49.400;8.682;2022-07-06T01:16:11;3.15;;;1.63;;
60098;SDS011;45976;49.400;8.682;2022-07-06T01:17:13;3.07;;;1.10;;
60098;SDS011;45976;49.400;8.682;2022-07-06T01:18:15;10.52;;;1.58;;
60098;SDS011;45976;49.400;8.682;2022-07-06T01:19:16;8.60;;;1.60;;
60098;SDS011;45976;49.400;8.682;2022-07-06T01:21:19;4.97;;;1.67;;
60098;SDS011;45976;49.400;8.682;2022-07-06T01:22:20;5.25;;;1.52;;
60098;SDS011;45976;49.400;8.682;2022-07-06T01:23:20;3.03;;;1.73;;
60098;SDS011;45976;49.400;8.682;2022-07-06T01:24:21;7.17;;;1.30;;
60098;SDS011;45976;49.400;8.682;2022-07-06T01:25:22;11.40;;;1.53;;
60098;SDS011;45976;49.400;8.682;2022-07-06T01:26:23;4.10;;;1.48;;
60098;SDS011;45976;49.400;8.682;2022-07-06T01:27:23;4.10;;;1.30;;
60098;SDS011;45976;49.400;8.682;2022-07-06T01:28:24;4.17;;;1.50;;
60098;SDS011;45976;49.400;8.682;2022-07-06T01:29:24;4.00;;;1.30;;
60098;SDS011;45976;49.400;8.682;2022-07-06T01:30:25;11.47;;;1.70;;
60098;SDS011;45976;49.400;8.682;2022-07-06T01:31:26;5.97;;;1.63;;
60098;SDS011;45976;49.400;8.682;2022-07-06T01:33:28;4.60;;;1.55;;
60098;SDS011;45976;49.400;8.682;2022-07-06T01:34:28;2.73;;;1.47;;
60098;SDS011;45976;49.400;8.682;2022-07-06T01:35:29;5.50;;;1.50;;
60098;SDS011;45976;49.400;8.682;2022-07-06T01:36:35;3.17;;;1.50;;
60098;SDS011;45976;49.400;8.682;2022-07-06T01:37:36;3.67;;;1.47;;
60098;SDS011;45976;49.400;8.682;2022-07-06T01:38:44;5.70;;;1.40;;
60098;SDS011;45976;49.400;8.682;2022-07-06T01:39:45;4.80;;;1.42;;
60098;SDS011;45976;49.400;8.682;2022-07-06T01:40:46;4.17;;;1.73;;
60098;SDS011;45976;49.400;8.682;2022-07-06T01:41:47;3.70;;;1.33;;
60098;SDS011;45976;49.400;8.682;2022-07-06T01:42:47;3.07;;;1.47;;
60098;SDS011;45976;49.400;8.682;2022-07-06T01:43:48;6.10;;;1.90;;
60098;SDS011;45976;49.400;8.682;2022-07-06T01:44:49;4.47;;;1.40;;
60098;SDS011;45976;49.400;8.682;2022-07-06T01:45:49;6.30;;;1.70;;
60098;SDS011;45976;49.400;8.682;2022-07-06T01:46:50;4.67;;;1.50;;
60098;SDS011;45976;49.400;8.682;2022-07-06T01:47:50;6.80;;;1.80;;
60098;SDS011;45976;49.400;8.682;2022-07-06T01:48:51;9.03;;;1.77;;
60098;SDS011;45976;49.400;8.682;2022-07-06T01:49:51;6.72;;;1.52;;
60098;SDS011;45976;49.400;8.682;2022-07-06T01:50:52;4.00;;;1.70;;
60098;SDS011;45976;49.400;8.682;2022-07-06T01:51:53;7.47;;;1.70;;
60098;SDS011;45976;49.400;8.682;2022-07-06T01:52:53;4.53;;;1.63;;
60098;SDS011;45976;49.400;8.682;2022-07-06T01:53:54;4.70;;;1.47;;
60098;SDS011;45976;49.400;8.682;2022-07-06T01:54:55;3.43;;;1.40;;
60098;SDS011;45976;49.400;8.682;2022-07-06T01:55:57;4.10;;;1.80;;
60098;SDS011;45976;49.400;8.682;2022-07-06T01:56:57;3.38;;;1.60;;
60098;SDS011;45976;49.400;8.682;2022-07-06T01:57:58;5.83;;;1.70;;
60098;SDS011;45976;49.400;8.682;2022-07-06T01:58:59;3.93;;;1.57;;
60098;SDS011;45976;49.400;8.682;2022-07-06T01:59:59;3.17;;;1.40;;
60098;SDS011;45976;49.400;8.682;2022-07-06T02:01:00;6.30;;;2.60;;
60098;SDS011;45976;49.400;8.682;2022-07-06T02:02:06;3.60;;;1.85;;
60098;SDS011;45976;49.400;8.682;2022-07-06T02:03:06;7.27;;;2.50;;
60098;SDS011;45976;49.400;8.682;2022-07-06T02:04:07;5.63;;;1.65;;
60098;SDS011;45976;49.400;8.682;2022-07-06T02:05:08;3.67;;;1.87;;
60098;SDS011;45976;49.400;8.682;2022-07-06T02:06:08;4.97;;;1.73;;
60098;SDS011;45976;49.400;8.682;2022-07-06T02:07:11;8.60;;;1.70;;
60098;SDS011;45976;49.400;8.682;2022-07-06T02:08:12;3.67;;;1.77;;
60098;SDS011;45976;49.400;8.682;2022-07-06T02:09:13;4.33;;;1.70;;
60098;SDS011;45976;49.400;8.682;2022-07-06T02:10:13;4.13;;;1.50;;
60098;SDS011;45976;49.400;8.682;2022-07-06T02:11:14;6.70;;;1.73;;
60098;SDS011;45976;49.400;8.682;2022-07-06T02:12:14;5.87;;;1.90;;
60098;SDS011;45976;49.400;8.682;2022-07-06T02:13:15;2.30;;;1.80;;
60098;SDS011;45976;49.400;8.682;2022-07-06T02:14:16;4.30;;;1.40;;
60098;SDS011;45976;49.400;8.682;2022-07-06T02:15:16;6.37;;;2.43;;
60098;SDS011;45976;49.400;8.682;2022-07-06T02:16:17;3.07;;;1.90;;
60098;SDS011;45976;49.400;8.682;2022-07-06T02:17:17;4.93;;;2.00;;
60098;SDS011;45976;49.400;8.682;2022-07-06T02:18:18;5.97;;;1.60;;
60098;SDS011;45976;49.400;8.682;2022-07-06T02:19:19;7.70;;;1.83;;
60098;SDS011;45976;49.400;8.682;2022-07-06T02:20:19;3.73;;;1.50;;
60098;SDS011;45976;49.400;8.682;2022-07-06T02:21:20;3.07;;;1.77;;
60098;SDS011;45976;49.400;8.682;2022-07-06T02:22:20;5.93;;;1.83;;
60098;SDS011;45976;49.400;8.682;2022-07-06T02:23:21;4.50;;;2.03;;
60098;SDS011;45976;49.400;8.682;2022-07-06T02:24:22;2.80;;;1.65;;
60098;SDS011;45976;49.400;8.682;2022-07-06T02:25:23;10.53;;;1.90;;
60098;SDS011;45976;49.400;8.682;2022-07-06T02:26:24;4.30;;;1.75;;
60098;SDS011;45976;49.400;8.682;2022-07-06T02:27:24;4.17;;;1.77;;
60098;SDS011;45976;49.400;8.682;2022-07-06T02:28:25;5.27;;;1.80;;
60098;SDS011;45976;49.400;8.682;2022-07-06T02:29:26;4.25;;;1.67;;
60098;SDS011;45976;49.400;8.682;2022-07-06T02:30:26;9.57;;;1.80;;
60098;SDS011;45976;49.400;8.682;2022-07-06T02:31:27;7.30;;;1.90;;
60098;SDS011;45976;49.400;8.682;2022-07-06T02:32:28;4.17;;;1.60;;
60098;SDS011;45976;49.400;8.682;2022-07-06T02:33:28;2.57;;;1.73;;
60098;SDS011;45976;49.400;8.682;2022-07-06T02:34:29;9.90;;;1.67;;
60098;SDS011;45976;49.400;8.682;2022-07-06T02:35:30;3.53;;;1.63;;
60098;SDS011;45976;49.400;8.682;2022-07-06T02:36:30;8.40;;;1.90;;
60098;SDS011;45976;49.400;8.682;2022-07-06T02:37:31;8.30;;;1.90;;
60098;SDS011;45976;49.400;8.682;2022-07-06T02:38:32;7.57;;;1.90;;
60098;SDS011;45976;49.400;8.682;2022-07-06T02:39:32;3.53;;;1.70;;
60098;SDS011;45976;49.400;8.682;2022-07-06T02:40:33;4.23;;;1.67;;
60098;SDS011;45976;49.400;8.682;2022-07-06T02:41:33;6.50;;;2.30;;
60098;SDS011;45976;49.400;8.682;2022-07-06T02:42:34;4.83;;;1.80;;
60098;SDS011;45976;49.400;8.682;2022-07-06T02:43:36;4.53;;;2.08;;
60098;SDS011;45976;49.400;8.682;2022-07-06T02:44:38;7.07;;;2.08;;
60098;SDS011;45976;49.400;8.682;2022-07-06T02:45:39;4.20;;;1.90;;
60098;SDS011;45976;49.400;8.682;2022-07-06T02:46:40;4.45;;;1.95;;
60098;SDS011;45976;49.400;8.682;2022-07-06T02:47:40;5.77;;;1.90;;
60098;SDS011;45976;49.400;8.682;2022-07-06T02:48:41;5.80;;;1.70;;
60098;SDS011;45976;49.400;8.682;2022-07-06T02:49:41;3.83;;;1.73;;
60098;SDS011;45976;49.400;8.682;2022-07-06T02:50:42;5.40;;;1.90;;
60098;SDS011;45976;49.400;8.682;2022-07-06T02:51:43;3.30;;;1.80;;
60098;SDS011;45976;49.400;8.682;2022-07-06T02:52:43;3.27;;;1.80;;
60098;SDS011;45976;49.400;8.682;2022-07-06T02:53:44;4.50;;;2.37;;
60098;SDS011;45976;49.400;8.682;2022-07-06T02:54:45;3.13;;;1.73;;
60098;SDS011;45976;49.400;8.682;2022-07-06T02:55:46;4.97;;;1.70;;
60098;SDS011;45976;49.400;8.682;2022-07-06T02:56:46;2.63;;;1.87;;
60098;SDS011;45976;49.400;8.682;2022-07-06T02:57:52;7.05;;;2.00;;
60098;SDS011;45976;49.400;8.682;2022-07-06T02:58:52;5.20;;;2.00;;
60098;SDS011;45976;49.400;8.682;2022-07-06T02:59:53;5.03;;;2.13;;
60098;SDS011;45976;49.400;8.682;2022-07-06T03:00:54;4.80;;;2.00;;
60098;SDS011;45976;49.400;8.682;2022-07-06T03:01:54;4.60;;;1.90;;
60098;SDS011;45976;49.400;8.682;2022-07-06T03:02:55;13.10;;;2.20;;
60098;SDS011;45976;49.400;8.682;2022-07-06T03:03:55;5.10;;;2.10;;
60098;SDS011;45976;49.400;8.682;2022-07-06T03:04:56;6.37;;;2.20;;
60098;SDS011;45976;49.400;8.682;2022-07-06T03:05:57;10.32;;;2.45;;
60098;SDS011;45976;49.400;8.682;2022-07-06T03:06:57;4.77;;;2.27;;
60098;SDS011;45976;49.400;8.682;2022-07-06T03:07:58;9.80;;;2.50;;
60098;SDS011;45976;49.400;8.682;2022-07-06T03:08:58;5.93;;;2.17;;
60098;SDS011;45976;49.400;8.682;2022-07-06T03:10:00;3.50;;;1.98;;
60098;SDS011;45976;49.400;8.682;2022-07-06T03:11:01;3.03;;;1.93;;
60098;SDS011;45976;49.400;8.682;2022-07-06T03:12:01;3.27;;;2.07;;
60098;SDS011;45976;49.400;8.682;2022-07-06T03:13:02;4.68;;;2.20;;
60098;SDS011;45976;49.400;8.682;2022-07-06T03:14:03;3.77;;;1.90;;
60098;SDS011;45976;49.400;8.682;2022-07-06T03:15:05;5.22;;;2.30;;
60098;SDS011;45976;49.400;8.682;2022-07-06T03:16:09;5.55;;;2.42;;
60098;SDS011;45976;49.400;8.682;2022-07-06T03:17:10;8.77;;;2.10;;
60098;SDS011;45976;49.400;8.682;2022-07-06T03:18:10;6.50;;;2.33;;
60098;SDS011;45976;49.400;8.682;2022-07-06T03:19:11;7.13;;;2.20;;
60098;SDS011;45976;49.400;8.682;2022-07-06T03:20:11;8.33;;;2.57;;
60098;SDS011;45976;49.400;8.682;2022-07-06T03:21:12;6.50;;;2.23;;
60098;SDS011;45976;49.400;8.682;2022-07-06T03:22:13;5.00;;;2.40;;
60098;SDS011;45976;49.400;8.682;2022-07-06T03:23:14;4.10;;;2.15;;
60098;SDS011;45976;49.400;8.682;2022-07-06T03:24:14;4.73;;;2.33;;
60098;SDS011;45976;49.400;8.682;2022-07-06T03:25:15;4.35;;;2.13;;
60098;SDS011;45976;49.400;8.682;2022-07-06T03:26:16;7.20;;;2.13;;
60098;SDS011;45976;49.400;8.682;2022-07-06T03:27:16;3.43;;;2.33;;
60098;SDS011;45976;49.400;8.682;2022-07-06T03:28:17;5.30;;;2.40;;
60098;SDS011;45976;49.400;8.682;2022-07-06T03:29:17;6.90;;;2.50;;
60098;SDS011;45976;49.400;8.682;2022-07-06T03:30:18;9.70;;;2.03;;
60098;SDS011;45976;49.400;8.682;2022-07-06T03:31:19;3.63;;;1.98;;
60098;SDS011;45976;49.400;8.682;2022-07-06T03:32:19;3.97;;;1.97;;
60098;SDS011;45976;49.400;8.682;2022-07-06T03:33:20;10.07;;;1.90;;
60098;SDS011;45976;49.400;8.682;2022-07-06T03:34:20;4.57;;;2.30;;
60098;SDS011;45976;49.400;8.682;2022-07-06T03:35:21;6.73;;;2.17;;
60098;SDS011;45976;49.400;8.682;2022-07-06T03:36:22;9.80;;;2.30;;
60098;SDS011;45976;49.400;8.682;2022-07-06T03:37:23;5.33;;;2.20;;
60098;SDS011;45976;49.400;8.682;2022-07-06T03:38:23;5.20;;;2.17;;
60098;SDS011;45976;49.400;8.682;2022-07-06T03:39:24;5.73;;;2.00;;
60098;SDS011;45976;49.400;8.682;2022-07-06T03:40:24;3.97;;;1.97;;
60098;SDS011;45976;49.400;8.682;2022-07-06T03:41:25;5.47;;;1.93;;
60098;SDS011;45976;49.400;8.682;2022-07-06T03:42:25;7.73;;;2.37;;
60098;SDS011;45976;49.400;8.682;2022-07-06T03:43:26;5.53;;;2.00;;
60098;SDS011;45976;49.400;8.682;2022-07-06T03:44:27;4.83;;;2.30;;
60098;SDS011;45976;49.400;8.682;2022-07-06T03:45:27;3.10;;;1.93;;
60098;SDS011;45976;49.400;8.682;2022-07-06T03:46:28;7.63;;;2.10;;
60098;SDS011;45976;49.400;8.682;2022-07-06T03:47:29;6.72;;;2.35;;
60098;SDS011;45976;49.400;8.682;2022-07-06T03:48:29;5.10;;;2.37;;
60098;SDS011;45976;49.400;8.682;2022-07-06T03:49:30;5.00;;;2.03;;
60098;SDS011;45976;49.400;8.682;2022-07-06T03:50:31;4.80;;;2.23;;
60098;SDS011;45976;49.400;8.682;2022-07-06T03:51:31;3.47;;;1.90;;
60098;SDS011;45976;49.400;8.682;2022-07-06T03:52:33;6.15;;;2.00;;
60098;SDS011;45976;49.400;8.682;2022-07-06T03:53:39;4.50;;;2.15;;
60098;SDS011;45976;49.400;8.682;2022-07-06T03:54:39;3.83;;;2.00;;
60098;SDS011;45976;49.400;8.682;2022-07-06T03:55:40;7.27;;;2.27;;
60098;SDS011;45976;49.400;8.682;2022-07-06T03:56:40;4.27;;;2.00;;
60098;SDS011;45976;49.400;8.682;2022-07-06T03:57:41;9.47;;;2.50;;
60098;SDS011;45976;49.400;8.682;2022-07-06T03:58:42;6.27;;;2.13;;
60098;SDS011;45976;49.400;8.682;2022-07-06T03:59:43;4.72;;;2.10;;
60098;SDS011;45976;49.400;8.682;2022-07-06T04:00:43;6.87;;;2.47;;
60098;SDS011;45976;49.400;8.682;2022-07-06T04:01:44;5.07;;;2.17;;
60098;SDS011;45976;49.400;8.682;2022-07-06T04:02:44;4.47;;;2.00;;
60098;SDS011;45976;49.400;8.682;2022-07-06T04:03:45;2.50;;;2.03;;
60098;SDS011;45976;49.400;8.682;2022-07-06T04:04:46;5.67;;;2.10;;
60098;SDS011;45976;49.400;8.682;2022-07-06T04:05:46;7.07;;;1.93;;
60098;SDS011;45976;49.400;8.682;2022-07-06T04:06:47;7.17;;;2.03;;
60098;SDS011;45976;49.400;8.682;2022-07-06T04:07:48;10.00;;;2.45;;
60098;SDS011;45976;49.400;8.682;2022-07-06T04:08:49;2.22;;;1.98;;
60098;SDS011;45976;49.400;8.682;2022-07-06T04:09:50;6.45;;;2.22;;
60098;SDS011;45976;49.400;8.682;2022-07-06T04:10:50;7.53;;;1.93;;
60098;SDS011;45976;49.400;8.682;2022-07-06T04:11:51;2.67;;;1.80;;
60098;SDS011;45976;49.400;8.682;2022-07-06T04:12:52;4.33;;;1.90;;
60098;SDS011;45976;49.400;8.682;2022-07-06T04:13:53;3.00;;;2.10;;
60098;SDS011;45976;49.400;8.682;2022-07-06T04:15:58;6.00;;;2.10;;
60098;SDS011;45976;49.400;8.682;2022-07-06T04:16:59;3.85;;;2.10;;
60098;SDS011;45976;49.400;8.682;2022-07-06T04:18:19;5.18;;;2.15;;
60098;SDS011;45976;49.400;8.682;2022-07-06T04:19:20;6.65;;;2.53;;
60098;SDS011;45976;49.400;8.682;2022-07-06T04:20:21;5.40;;;2.10;;
60098;SDS011;45976;49.400;8.682;2022-07-06T04:21:25;5.70;;;1.85;;
60098;SDS011;45976;49.400;8.682;2022-07-06T04:22:26;5.43;;;2.20;;
60098;SDS011;45976;49.400;8.682;2022-07-06T04:23:26;6.30;;;2.07;;
60098;SDS011;45976;49.400;8.682;2022-07-06T04:24:27;7.43;;;2.00;;
60098;SDS011;45976;49.400;8.682;2022-07-06T04:25:27;4.40;;;2.10;;
60098;SDS011;45976;49.400;8.682;2022-07-06T04:26:28;9.82;;;3.40;;
60098;SDS011;45976;49.400;8.682;2022-07-06T04:27:29;4.40;;;2.30;;
60098;SDS011;45976;49.400;8.682;2022-07-06T04:28:30;6.72;;;1.92;;
60098;SDS011;45976;49.400;8.682;2022-07-06T04:29:31;3.57;;;2.13;;
60098;SDS011;45976;49.400;8.682;2022-07-06T04:30:32;7.20;;;2.20;;
60098;SDS011;45976;49.400;8.682;2022-07-06T04:31:32;7.55;;;2.15;;
60098;SDS011;45976;49.400;8.682;2022-07-06T04:32:35;8.90;;;2.28;;
60098;SDS011;45976;49.400;8.682;2022-07-06T04:33:35;3.90;;;2.45;;
60098;SDS011;45976;49.400;8.682;2022-07-06T04:34:36;7.77;;;2.00;;
60098;SDS011;45976;49.400;8.682;2022-07-06T04:35:37;6.30;;;2.40;;
60098;SDS011;45976;49.400;8.682;2022-07-06T04:36:37;5.40;;;2.40;;
60098;SDS011;45976;49.400;8.682;2022-07-06T04:37:38;6.07;;;2.30;;
60098;SDS011;45976;49.400;8.682;2022-07-06T04:38:38;6.00;;;2.20;;
60098;SDS011;45976;49.400;8.682;2022-07-06T04:39:39;9.50;;;2.05;;
60098;SDS011;45976;49.400;8.682;2022-07-06T04:40:40;6.13;;;2.10;;
60098;SDS011;45976;49.400;8.682;2022-07-06T04:41:40;3.40;;;2.00;;
60098;SDS011;45976;49.400;8.682;2022-07-06T04:42:41;9.77;;;2.23;;
60098;SDS011;45976;49.400;8.682;2022-07-06T04:43:42;9.32;;;2.20;;
60098;SDS011;45976;49.400;8.682;2022-07-06T04:45:45;3.28;;;2.15;;
60098;SDS011;45976;49.400;8.682;2022-07-06T04:46:46;5.30;;;2.07;;
60098;SDS011;45976;49.400;8.682;2022-07-06T04:47:46;5.00;;;1.83;;
60098;SDS011;45976;49.400;8.682;2022-07-06T04:48:47;5.55;;;1.88;;
60098;SDS011;45976;49.400;8.682;2022-07-06T04:49:49;3.33;;;1.88;;
60098;SDS011;45976;49.400;8.682;2022-07-06T04:50:49;4.83;;;2.10;;
60098;SDS011;45976;49.400;8.682;2022-07-06T04:51:50;8.40;;;2.00;;
60098;SDS011;45976;49.400;8.682;2022-07-06T04:52:51;6.07;;;2.00;;
60098;SDS011;45976;49.400;8.682;2022-07-06T04:53:51;6.90;;;2.00;;
60098;SDS011;45976;49.400;8.682;2022-07-06T04:54:52;4.10;;;1.67;;
60098;SDS011;45976;49.400;8.682;2022-07-06T04:55:54;5.68;;;1.83;;
60098;SDS011;45976;49.400;8.682;2022-07-06T04:56:54;3.10;;;1.90;;
60098;SDS011;45976;49.400;8.682;2022-07-06T04:57:55;6.53;;;1.77;;
60098;SDS011;45976;49.400;8.682;2022-07-06T04:58:56;7.70;;;2.10;;
60098;SDS011;45976;49.400;8.682;2022-07-06T04:59:56;4.83;;;2.07;;
60098;SDS011;45976;49.400;8.682;2022-07-06T05:01:58;4.55;;;1.67;;
60098;SDS011;45976;49.400;8.682;2022-07-06T05:02:59;7.43;;;2.00;;
60098;SDS011;45976;49.400;8.682;2022-07-06T05:03:59;6.87;;;2.00;;
60098;SDS011;45976;49.400;8.682;2022-07-06T05:05:00;6.93;;;2.00;;
60098;SDS011;45976;49.400;8.682;2022-07-06T05:06:01;8.73;;;2.20;;
60098;SDS011;45976;49.400;8.682;2022-07-06T05:07:01;5.37;;;2.30;;
60098;SDS011;45976;49.400;8.682;2022-07-06T05:08:02;4.43;;;1.88;;
60098;SDS011;45976;49.400;8.682;2022-07-06T05:09:03;6.95;;;1.70;;
60098;SDS011;45976;49.400;8.682;2022-07-06T05:10:03;8.38;;;1.95;;
60098;SDS011;45976;49.400;8.682;2022-07-06T05:11:06;4.28;;;1.70;;
60098;SDS011;45976;49.400;8.682;2022-07-06T05:12:07;4.87;;;1.60;;
60098;SDS011;45976;49.400;8.682;2022-07-06T05:14:09;3.25;;;1.52;;
60098;SDS011;45976;49.400;8.682;2022-07-06T05:15:10;2.20;;;1.73;;
60098;SDS011;45976;49.400;8.682;2022-07-06T05:16:11;9.50;;;1.92;;
60098;SDS011;45976;49.400;8.682;2022-07-06T05:17:12;6.73;;;2.17;;
60098;SDS011;45976;49.400;8.682;2022-07-06T05:18:12;7.40;;;1.90;;
60098;SDS011;45976;49.400;8.682;2022-07-06T05:19:13;3.33;;;1.67;;
60098;SDS011;45976;49.400;8.682;2022-07-06T05:20:13;10.33;;;1.70;;
60098;SDS011;45976;49.400;8.682;2022-07-06T05:21:14;8.67;;;1.83;;
60098;SDS011;45976;49.400;8.682;2022-07-06T05:22:15;8.65;;;1.90;;
60098;SDS011;45976;49.400;8.682;2022-07-06T05:23:15;9.30;;;1.73;;
60098;SDS011;45976;49.400;8.682;2022-07-06T05:24:16;5.63;;;2.00;;
60098;SDS011;45976;49.400;8.682;2022-07-06T05:25:17;6.90;;;1.73;;
60098;SDS011;45976;49.400;8.682;2022-07-06T05:26:17;4.97;;;2.03;;
60098;SDS011;45976;49.400;8.682;2022-07-06T05:27:18;6.70;;;1.70;;
60098;SDS011;45976;49.400;8.682;2022-07-06T05:28:18;5.97;;;1.53;;
60098;SDS011;45976;49.400;8.682;2022-07-06T05:29:19;3.20;;;1.67;;
60098;SDS011;45976;49.400;8.682;2022-07-06T05:30:20;6.20;;;1.90;;
60098;SDS011;45976;49.400;8.682;2022-07-06T05:31:20;3.65;;;1.80;;
60098;SDS011;45976;49.400;8.682;2022-07-06T05:32:21;4.82;;;1.60;;
60098;SDS011;45976;49.400;8.682;2022-07-06T05:33:22;6.10;;;1.80;;
60098;SDS011;45976;49.400;8.682;2022-07-06T05:34:22;3.57;;;1.70;;
60098;SDS011;45976;49.400;8.682;2022-07-06T05:35:23;8.87;;;2.50;;
60098;SDS011;45976;49.400;8.682;2022-07-06T05:36:24;3.78;;;1.83;;
60098;SDS011;45976;49.400;8.682;2022-07-06T05:37:24;7.03;;;1.63;;
60098;SDS011;45976;49.400;8.682;2022-07-06T05:38:25;6.37;;;2.00;;
60098;SDS011;45976;49.400;8.682;2022-07-06T05:39:26;7.50;;;2.20;;
60098;SDS011;45976;49.400;8.682;2022-07-06T05:40:26;4.77;;;2.13;;
60098;SDS011;45976;49.400;8.682;2022-07-06T05:41:27;7.17;;;2.10;;
60098;SDS011;45976;49.400;8.682;2022-07-06T05:42:28;7.23;;;2.20;;
60098;SDS011;45976;49.400;8.682;2022-07-06T05:43:28;4.93;;;1.60;;
60098;SDS011;45976;49.400;8.682;2022-07-06T05:44:29;8.40;;;1.63;;
60098;SDS011;45976;49.400;8.682;2022-07-06T05:45:29;6.23;;;1.60;;
60098;SDS011;45976;49.400;8.682;2022-07-06T05:46:30;4.23;;;1.80;;
60098;SDS011;45976;49.400;8.682;2022-07-06T05:47:32;5.93;;;1.65;;
60098;SDS011;45976;49.400;8.682;2022-07-06T05:48:51;12.20;;;2.95;;
60098;SDS011;45976;49.400;8.682;2022-07-06T05:50:10;7.60;;;1.85;;
60098;SDS011;45976;49.400;8.682;2022-07-06T05:51:14;3.95;;;1.60;;
60098;SDS011;45976;49.400;8.682;2022-07-06T05:52:15;5.27;;;1.90;;
60098;SDS011;45976;49.400;8.682;2022-07-06T05:53:17;7.72;;;1.92;;
60098;SDS011;45976;49.400;8.682;2022-07-06T05:54:18;7.63;;;1.65;;
60098;SDS011;45976;49.400;8.682;2022-07-06T05:55:19;9.00;;;1.87;;
60098;SDS011;45976;49.400;8.682;2022-07-06T05:56:20;9.07;;;1.90;;
60098;SDS011;45976;49.400;8.682;2022-07-06T05:57:21;3.33;;;1.70;;
60098;SDS011;45976;49.400;8.682;2022-07-06T05:58:22;6.85;;;2.47;;
60098;SDS011;45976;49.400;8.682;2022-07-06T05:59:25;8.90;;;2.30;;
60098;SDS011;45976;49.400;8.682;2022-07-06T06:01:27;3.72;;;2.15;;
60098;SDS011;45976;49.400;8.682;2022-07-06T06:02:35;5.43;;;2.28;;
60098;SDS011;45976;49.400;8.682;2022-07-06T06:03:38;8.35;;;2.05;;
60098;SDS011;45976;49.400;8.682;2022-07-06T06:04:39;4.63;;;2.27;;
60098;SDS011;45976;49.400;8.682;2022-07-06T06:05:39;8.23;;;2.10;;
60098;SDS011;45976;49.400;8.682;2022-07-06T06:06:40;5.77;;;1.90;;
60098;SDS011;45976;49.400;8.682;2022-07-06T06:07:41;5.77;;;2.23;;
60098;SDS011;45976;49.400;8.682;2022-07-06T06:08:41;4.50;;;1.67;;
60098;SDS011;45976;49.400;8.682;2022-07-06T06:09:42;4.77;;;1.80;;
60098;SDS011;45976;49.400;8.682;2022-07-06T06:10:44;2.53;;;1.73;;
60098;SDS011;45976;49.400;8.682;2022-07-06T06:11:44;3.07;;;1.70;;
60098;SDS011;45976;49.400;8.682;2022-07-06T06:12:45;6.67;;;2.00;;
60098;SDS011;45976;49.400;8.682;2022-07-06T06:13:46;3.22;;;1.67;;
60098;SDS011;45976;49.400;8.682;2022-07-06T06:14:46;6.20;;;1.70;;
60098;SDS011;45976;49.400;8.682;2022-07-06T06:15:47;10.70;;;2.10;;
60098;SDS011;45976;49.400;8.682;2022-07-06T06:16:48;6.13;;;2.23;;
60098;SDS011;45976;49.400;8.682;2022-07-06T06:17:48;6.37;;;1.87;;
60098;SDS011;45976;49.400;8.682;2022-07-06T06:18:49;7.03;;;2.00;;
60098;SDS011;45976;49.400;8.682;2022-07-06T06:19:49;5.07;;;2.00;;